sensor_id;sensor_type;location;lat;lon;timestamp;temperature;humidity
758;DHT22;363;48.764;9.172;2023-05-07T00:01:35;15.00;99.90
758;DHT22;363;48.764;9.172;2023-05-07T00:04:01;14.90;99.90
758;DHT22;363;48.764;9.172;2023-05-07T00:06:27;14.90;99.90
758;DHT22;363;48.764;9.172;2023-05-07T00:08:54;14.80;99.90
758;DHT22;363;48.764;9.172;2023-05-07T00:11:20;14.90;99.90
758;DHT22;363;48.764;9.172;2023-05-07T00:13:47;14.80;99.90
758;DHT22;363;48.764;9.172;2023-05-07T00:16:12;14.90;99.90
758;DHT22;363;48.764;9.172;2023-05-07T00:18:38;15.00;99.90
758;DHT22;363;48.764;9.172;2023-05-07T00:21:04;15.00;99.90
758;DHT22;363;48.764;9.172;2023-05-07T00:23:29;14.80;99.90
758;DHT22;363;48.764;9.172;2023-05-07T00:25:55;14.80;99.90
758;DHT22;363;48.764;9.172;2023-05-07T00:28:21;14.70;99.90
758;DHT22;363;48.764;9.172;2023-05-07T00:30:47;14.70;99.90
758;DHT22;363;48.764;9.172;2023-05-07T00:33:12;14.40;99.90
758;DHT22;363;48.764;9.172;2023-05-07T00:35:38;14.70;99.90
758;DHT22;363;48.764;9.172;2023-05-07T00:38:03;14.70;99.90
758;DHT22;363;48.764;9.172;2023-05-07T00:40:29;14.60;99.90
758;DHT22;363;48.764;9.172;2023-05-07T00:42:55;14.40;99.90
758;DHT22;363;48.764;9.172;2023-05-07T00:45:26;14.50;99.90
758;DHT22;363;48.764;9.172;2023-05-07T00:47:57;14.50;99.90
758;DHT22;363;48.764;9.172;2023-05-07T00:50:23;14.60;99.90
758;DHT22;363;48.764;9.172;2023-05-07T00:52:49;14.50;99.90
758;DHT22;363;48.764;9.172;2023-05-07T00:55:14;14.60;99.90
758;DHT22;363;48.764;9.172;2023-05-07T00:57:41;14.70;99.90
758;DHT22;363;48.764;9.172;2023-05-07T01:00:08;14.50;99.90
758;DHT22;363;48.764;9.172;2023-05-07T01:02:35;14.60;99.90
758;DHT22;363;48.764;9.172;2023-05-07T01:05:02;14.30;99.90
758;DHT22;363;48.764;9.172;2023-05-07T01:07:31;14.60;99.90
758;DHT22;363;48.764;9.172;2023-05-07T01:09:58;14.30;99.90
758;DHT22;363;48.764;9.172;2023-05-07T01:12:24;14.60;99.90
758;DHT22;363;48.764;9.172;2023-05-07T01:14:50;14.30;99.90
758;DHT22;363;48.764;9.172;2023-05-07T01:17:16;14.40;99.90
758;DHT22;363;48.764;9.172;2023-05-07T01:19:42;14.60;99.90
758;DHT22;363;48.764;9.172;2023-05-07T01:22:10;14.50;99.90
758;DHT22;363;48.764;9.172;2023-05-07T01:24:40;14.10;99.90
758;DHT22;363;48.764;9.172;2023-05-07T01:27:06;14.20;99.90
758;DHT22;363;48.764;9.172;2023-05-07T01:29:32;14.50;99.90
758;DHT22;363;48.764;9.172;2023-05-07T01:31:59;14.40;99.90
758;DHT22;363;48.764;9.172;2023-05-07T01:34:28;14.60;99.90
758;DHT22;363;48.764;9.172;2023-05-07T01:36:54;14.30;99.90
758;DHT22;363;48.764;9.172;2023-05-07T01:39:24;14.40;99.90
758;DHT22;363;48.764;9.172;2023-05-07T01:41:50;14.40;99.90
758;DHT22;363;48.764;9.172;2023-05-07T01:44:16;14.30;99.90
758;DHT22;363;48.764;9.172;2023-05-07T01:46:43;14.10;99.90
758;DHT22;363;48.764;9.172;2023-05-07T01:49:09;14.10;99.90
758;DHT22;363;48.764;9.172;2023-05-07T01:51:35;14.30;99.90
758;DHT22;363;48.764;9.172;2023-05-07T01:54:01;14.10;99.90
758;DHT22;363;48.764;9.172;2023-05-07T01:56:27;14.30;99.90
758;DHT22;363;48.764;9.172;2023-05-07T01:58:52;14.10;99.90
758;DHT22;363;48.764;9.172;2023-05-07T02:01:18;14.20;99.90
758;DHT22;363;48.764;9.172;2023-05-07T02:03:44;14.00;99.90
758;DHT22;363;48.764;9.172;2023-05-07T02:06:09;14.10;99.90
758;DHT22;363;48.764;9.172;2023-05-07T02:08:35;14.10;99.90
758;DHT22;363;48.764;9.172;2023-05-07T02:11:01;14.10;99.90
758;DHT22;363;48.764;9.172;2023-05-07T02:13:29;13.70;99.90
758;DHT22;363;48.764;9.172;2023-05-07T02:15:55;14.10;99.90
758;DHT22;363;48.764;9.172;2023-05-07T02:18:21;14.00;99.90
758;DHT22;363;48.764;9.172;2023-05-07T02:20:46;14.00;99.90
758;DHT22;363;48.764;9.172;2023-05-07T02:23:12;14.10;99.90
758;DHT22;363;48.764;9.172;2023-05-07T02:25:38;14.00;99.90
758;DHT22;363;48.764;9.172;2023-05-07T02:28:03;13.80;99.90
758;DHT22;363;48.764;9.172;2023-05-07T02:30:29;13.80;99.90
758;DHT22;363;48.764;9.172;2023-05-07T02:32:55;13.90;99.90
758;DHT22;363;48.764;9.172;2023-05-07T02:35:20;14.00;99.90
758;DHT22;363;48.764;9.172;2023-05-07T02:37:46;13.80;99.90
758;DHT22;363;48.764;9.172;2023-05-07T02:40:12;13.70;99.90
758;DHT22;363;48.764;9.172;2023-05-07T02:42:37;13.80;99.90
758;DHT22;363;48.764;9.172;2023-05-07T02:45:03;13.80;99.90
758;DHT22;363;48.764;9.172;2023-05-07T02:47:29;14.10;99.90
758;DHT22;363;48.764;9.172;2023-05-07T02:49:55;14.00;99.90
758;DHT22;363;48.764;9.172;2023-05-07T02:52:21;14.10;99.90
758;DHT22;363;48.764;9.172;2023-05-07T02:54:47;13.90;99.90
758;DHT22;363;48.764;9.172;2023-05-07T02:57:12;13.90;99.90
758;DHT22;363;48.764;9.172;2023-05-07T02:59:38;13.60;99.90
758;DHT22;363;48.764;9.172;2023-05-07T03:02:03;13.60;99.90
758;DHT22;363;48.764;9.172;2023-05-07T03:04:29;13.70;99.90
758;DHT22;363;48.764;9.172;2023-05-07T03:06:55;13.60;99.90
758;DHT22;363;48.764;9.172;2023-05-07T03:09:20;13.70;99.90
758;DHT22;363;48.764;9.172;2023-05-07T03:11:46;13.10;99.90
758;DHT22;363;48.764;9.172;2023-05-07T03:14:12;13.80;99.90
758;DHT22;363;48.764;9.172;2023-05-07T03:16:38;13.60;99.90
758;DHT22;363;48.764;9.172;2023-05-07T03:19:03;13.40;99.90
758;DHT22;363;48.764;9.172;2023-05-07T03:21:29;13.50;99.90
758;DHT22;363;48.764;9.172;2023-05-07T03:23:56;13.30;99.90
758;DHT22;363;48.764;9.172;2023-05-07T03:26:21;14.00;99.90
758;DHT22;363;48.764;9.172;2023-05-07T03:28:47;13.50;99.90
758;DHT22;363;48.764;9.172;2023-05-07T03:31:13;13.20;99.90
758;DHT22;363;48.764;9.172;2023-05-07T03:33:55;13.50;99.90
758;DHT22;363;48.764;9.172;2023-05-07T03:36:21;13.50;99.90
758;DHT22;363;48.764;9.172;2023-05-07T03:38:48;13.10;99.90
758;DHT22;363;48.764;9.172;2023-05-07T03:41:14;13.10;99.90
758;DHT22;363;48.764;9.172;2023-05-07T03:43:39;13.60;99.90
758;DHT22;363;48.764;9.172;2023-05-07T03:46:05;13.50;99.90
758;DHT22;363;48.764;9.172;2023-05-07T03:48:31;13.20;99.90
758;DHT22;363;48.764;9.172;2023-05-07T03:50:57;13.20;99.90
758;DHT22;363;48.764;9.172;2023-05-07T03:53:23;13.30;99.90
758;DHT22;363;48.764;9.172;2023-05-07T03:55:48;13.20;99.90
758;DHT22;363;48.764;9.172;2023-05-07T03:58:15;13.30;99.90
758;DHT22;363;48.764;9.172;2023-05-07T04:00:41;13.40;99.90
758;DHT22;363;48.764;9.172;2023-05-07T04:03:07;13.40;99.90
758;DHT22;363;48.764;9.172;2023-05-07T04:05:32;13.20;99.90
758;DHT22;363;48.764;9.172;2023-05-07T04:07:59;13.10;99.90
758;DHT22;363;48.764;9.172;2023-05-07T04:10:25;13.10;99.90
758;DHT22;363;48.764;9.172;2023-05-07T04:12:50;13.20;99.90
758;DHT22;363;48.764;9.172;2023-05-07T04:15:16;13.00;99.90
758;DHT22;363;48.764;9.172;2023-05-07T04:17:42;13.20;99.90
758;DHT22;363;48.764;9.172;2023-05-07T04:20:13;13.10;99.90
758;DHT22;363;48.764;9.172;2023-05-07T04:22:39;13.10;99.90
758;DHT22;363;48.764;9.172;2023-05-07T04:25:05;13.10;99.90
758;DHT22;363;48.764;9.172;2023-05-07T04:27:31;12.90;99.90
758;DHT22;363;48.764;9.172;2023-05-07T04:29:57;12.90;99.90
758;DHT22;363;48.764;9.172;2023-05-07T04:32:23;13.10;99.90
758;DHT22;363;48.764;9.172;2023-05-07T04:34:50;13.10;99.90
758;DHT22;363;48.764;9.172;2023-05-07T04:37:16;13.10;99.90
758;DHT22;363;48.764;9.172;2023-05-07T04:39:41;13.10;99.90
758;DHT22;363;48.764;9.172;2023-05-07T04:42:07;13.10;99.90
758;DHT22;363;48.764;9.172;2023-05-07T04:44:34;12.90;99.90
758;DHT22;363;48.764;9.172;2023-05-07T04:47:02;12.90;99.90
758;DHT22;363;48.764;9.172;2023-05-07T04:49:28;13.10;99.90
758;DHT22;363;48.764;9.172;2023-05-07T04:51:53;13.10;99.90
758;DHT22;363;48.764;9.172;2023-05-07T04:54:19;13.00;99.90
758;DHT22;363;48.764;9.172;2023-05-07T04:56:44;13.00;99.90
758;DHT22;363;48.764;9.172;2023-05-07T04:59:10;12.90;99.90
758;DHT22;363;48.764;9.172;2023-05-07T05:01:36;12.90;99.90
758;DHT22;363;48.764;9.172;2023-05-07T05:04:02;13.00;99.90
758;DHT22;363;48.764;9.172;2023-05-07T05:06:29;12.90;99.90
758;DHT22;363;48.764;9.172;2023-05-07T05:08:54;13.10;99.90
758;DHT22;363;48.764;9.172;2023-05-07T05:11:21;13.10;99.90
758;DHT22;363;48.764;9.172;2023-05-07T05:13:46;13.00;99.90
758;DHT22;363;48.764;9.172;2023-05-07T05:16:14;12.90;99.90
758;DHT22;363;48.764;9.172;2023-05-07T05:18:40;13.10;99.90
758;DHT22;363;48.764;9.172;2023-05-07T05:21:06;13.00;99.90
758;DHT22;363;48.764;9.172;2023-05-07T05:23:31;13.30;99.90
758;DHT22;363;48.764;9.172;2023-05-07T05:25:58;13.50;99.90
758;DHT22;363;48.764;9.172;2023-05-07T05:28:23;13.30;99.90
758;DHT22;363;48.764;9.172;2023-05-07T05:30:49;13.30;99.90
758;DHT22;363;48.764;9.172;2023-05-07T05:33:15;13.50;99.90
758;DHT22;363;48.764;9.172;2023-05-07T05:35:41;13.40;99.90
758;DHT22;363;48.764;9.172;2023-05-07T05:38:07;13.40;99.90
758;DHT22;363;48.764;9.172;2023-05-07T05:40:33;13.80;99.90
758;DHT22;363;48.764;9.172;2023-05-07T05:42:59;14.00;99.90
758;DHT22;363;48.764;9.172;2023-05-07T05:45:24;14.00;99.90
758;DHT22;363;48.764;9.172;2023-05-07T05:47:50;14.00;99.90
758;DHT22;363;48.764;9.172;2023-05-07T05:50:16;14.40;99.90
758;DHT22;363;48.764;9.172;2023-05-07T05:52:41;14.50;99.90
758;DHT22;363;48.764;9.172;2023-05-07T05:55:07;14.50;99.90
758;DHT22;363;48.764;9.172;2023-05-07T05:57:33;15.00;99.90
758;DHT22;363;48.764;9.172;2023-05-07T06:00:00;15.30;99.90
758;DHT22;363;48.764;9.172;2023-05-07T06:02:26;15.30;99.90
758;DHT22;363;48.764;9.172;2023-05-07T06:04:51;15.50;99.90
758;DHT22;363;48.764;9.172;2023-05-07T06:07:17;15.50;99.90
758;DHT22;363;48.764;9.172;2023-05-07T06:09:42;15.80;99.90
758;DHT22;363;48.764;9.172;2023-05-07T06:12:08;16.00;99.90
758;DHT22;363;48.764;9.172;2023-05-07T06:14:34;16.50;99.90
758;DHT22;363;48.764;9.172;2023-05-07T06:17:02;16.90;99.90
758;DHT22;363;48.764;9.172;2023-05-07T06:19:28;17.30;99.90
758;DHT22;363;48.764;9.172;2023-05-07T06:21:54;17.20;99.90
758;DHT22;363;48.764;9.172;2023-05-07T06:24:21;17.30;99.90
758;DHT22;363;48.764;9.172;2023-05-07T06:26:47;17.50;99.90
758;DHT22;363;48.764;9.172;2023-05-07T06:29:12;17.40;99.90
758;DHT22;363;48.764;9.172;2023-05-07T06:31:38;17.70;99.90
758;DHT22;363;48.764;9.172;2023-05-07T06:34:03;17.70;99.90
758;DHT22;363;48.764;9.172;2023-05-07T06:36:30;17.60;99.90
758;DHT22;363;48.764;9.172;2023-05-07T06:38:56;17.80;99.90
758;DHT22;363;48.764;9.172;2023-05-07T06:41:21;17.70;99.90
758;DHT22;363;48.764;9.172;2023-05-07T06:43:47;17.60;99.90
758;DHT22;363;48.764;9.172;2023-05-07T06:46:12;18.00;99.90
758;DHT22;363;48.764;9.172;2023-05-07T06:48:38;17.70;99.90
758;DHT22;363;48.764;9.172;2023-05-07T06:51:04;17.80;99.90
758;DHT22;363;48.764;9.172;2023-05-07T06:53:29;17.80;99.90
758;DHT22;363;48.764;9.172;2023-05-07T06:55:56;18.10;99.90
758;DHT22;363;48.764;9.172;2023-05-07T06:58:22;18.30;99.90
758;DHT22;363;48.764;9.172;2023-05-07T07:00:47;19.00;99.90
758;DHT22;363;48.764;9.172;2023-05-07T07:03:13;20.10;99.10
758;DHT22;363;48.764;9.172;2023-05-07T07:05:41;22.30;95.80
758;DHT22;363;48.764;9.172;2023-05-07T07:08:06;24.40;92.10
758;DHT22;363;48.764;9.172;2023-05-07T07:10:32;27.00;83.70
758;DHT22;363;48.764;9.172;2023-05-07T07:12:57;28.00;77.40
758;DHT22;363;48.764;9.172;2023-05-07T07:15:23;28.60;74.30
758;DHT22;363;48.764;9.172;2023-05-07T07:17:50;28.80;74.60
758;DHT22;363;48.764;9.172;2023-05-07T07:20:16;30.00;68.80
758;DHT22;363;48.764;9.172;2023-05-07T07:22:41;31.10;63.50
758;DHT22;363;48.764;9.172;2023-05-07T07:25:07;31.90;61.50
758;DHT22;363;48.764;9.172;2023-05-07T07:27:33;31.20;58.60
758;DHT22;363;48.764;9.172;2023-05-07T07:29:58;32.20;57.90
758;DHT22;363;48.764;9.172;2023-05-07T07:32:24;32.00;56.20
758;DHT22;363;48.764;9.172;2023-05-07T07:34:49;31.40;57.00
758;DHT22;363;48.764;9.172;2023-05-07T07:37:15;31.40;57.10
758;DHT22;363;48.764;9.172;2023-05-07T07:39:40;30.50;57.70
758;DHT22;363;48.764;9.172;2023-05-07T07:42:06;30.70;57.80
758;DHT22;363;48.764;9.172;2023-05-07T07:44:32;31.50;56.90
758;DHT22;363;48.764;9.172;2023-05-07T07:46:57;32.80;55.10
758;DHT22;363;48.764;9.172;2023-05-07T07:49:23;32.30;55.80
758;DHT22;363;48.764;9.172;2023-05-07T07:51:48;33.70;53.60
758;DHT22;363;48.764;9.172;2023-05-07T07:54:14;33.90;52.00
758;DHT22;363;48.764;9.172;2023-05-07T07:56:39;33.00;52.60
758;DHT22;363;48.764;9.172;2023-05-07T07:59:05;33.50;52.60
758;DHT22;363;48.764;9.172;2023-05-07T08:01:31;33.10;51.80
758;DHT22;363;48.764;9.172;2023-05-07T08:03:56;32.50;53.50
758;DHT22;363;48.764;9.172;2023-05-07T08:06:24;32.10;53.70
758;DHT22;363;48.764;9.172;2023-05-07T08:08:50;32.40;53.00
758;DHT22;363;48.764;9.172;2023-05-07T08:11:16;32.70;52.70
758;DHT22;363;48.764;9.172;2023-05-07T08:13:41;32.90;53.10
758;DHT22;363;48.764;9.172;2023-05-07T08:16:07;31.70;53.20
758;DHT22;363;48.764;9.172;2023-05-07T08:18:32;30.40;55.70
758;DHT22;363;48.764;9.172;2023-05-07T08:20:58;29.60;57.20
758;DHT22;363;48.764;9.172;2023-05-07T08:23:24;28.60;58.50
758;DHT22;363;48.764;9.172;2023-05-07T08:25:49;29.40;58.00
758;DHT22;363;48.764;9.172;2023-05-07T08:28:16;30.60;56.40
758;DHT22;363;48.764;9.172;2023-05-07T08:30:42;31.80;54.30
758;DHT22;363;48.764;9.172;2023-05-07T08:33:09;32.40;53.30
758;DHT22;363;48.764;9.172;2023-05-07T08:35:34;32.60;52.10
758;DHT22;363;48.764;9.172;2023-05-07T08:38:00;32.30;52.80
758;DHT22;363;48.764;9.172;2023-05-07T08:40:26;32.30;52.80
758;DHT22;363;48.764;9.172;2023-05-07T08:42:53;32.40;52.30
758;DHT22;363;48.764;9.172;2023-05-07T08:45:20;32.00;52.70
758;DHT22;363;48.764;9.172;2023-05-07T08:47:57;31.80;54.10
758;DHT22;363;48.764;9.172;2023-05-07T08:50:23;32.70;52.40
758;DHT22;363;48.764;9.172;2023-05-07T08:52:49;33.50;50.20
758;DHT22;363;48.764;9.172;2023-05-07T08:55:15;33.80;49.70
758;DHT22;363;48.764;9.172;2023-05-07T08:57:40;34.40;49.60
758;DHT22;363;48.764;9.172;2023-05-07T09:00:06;34.40;48.40
758;DHT22;363;48.764;9.172;2023-05-07T09:02:33;33.60;49.00
758;DHT22;363;48.764;9.172;2023-05-07T09:05:00;34.40;48.60
758;DHT22;363;48.764;9.172;2023-05-07T09:07:25;34.10;47.90
758;DHT22;363;48.764;9.172;2023-05-07T09:09:52;34.70;47.80
758;DHT22;363;48.764;9.172;2023-05-07T09:12:18;34.30;46.70
758;DHT22;363;48.764;9.172;2023-05-07T09:14:44;34.80;47.10
758;DHT22;363;48.764;9.172;2023-05-07T09:17:11;35.20;47.00
758;DHT22;363;48.764;9.172;2023-05-07T09:19:36;33.90;47.50
758;DHT22;363;48.764;9.172;2023-05-07T09:22:04;34.60;48.00
758;DHT22;363;48.764;9.172;2023-05-07T09:24:30;33.10;48.10
758;DHT22;363;48.764;9.172;2023-05-07T09:27:00;33.00;48.60
758;DHT22;363;48.764;9.172;2023-05-07T09:29:26;32.20;49.30
758;DHT22;363;48.764;9.172;2023-05-07T09:31:54;31.90;50.10
758;DHT22;363;48.764;9.172;2023-05-07T09:34:20;32.00;50.50
758;DHT22;363;48.764;9.172;2023-05-07T09:36:46;32.40;51.80
758;DHT22;363;48.764;9.172;2023-05-07T09:39:12;32.30;49.00
758;DHT22;363;48.764;9.172;2023-05-07T09:41:47;31.90;48.80
758;DHT22;363;48.764;9.172;2023-05-07T09:44:14;31.40;50.00
758;DHT22;363;48.764;9.172;2023-05-07T09:46:42;31.10;51.00
758;DHT22;363;48.764;9.172;2023-05-07T09:49:20;30.50;51.70
758;DHT22;363;48.764;9.172;2023-05-07T09:51:49;30.40;51.70
758;DHT22;363;48.764;9.172;2023-05-07T09:54:16;30.40;52.20
758;DHT22;363;48.764;9.172;2023-05-07T09:56:43;31.30;51.80
758;DHT22;363;48.764;9.172;2023-05-07T09:59:12;31.90;50.70
758;DHT22;363;48.764;9.172;2023-05-07T10:01:38;32.50;49.80
758;DHT22;363;48.764;9.172;2023-05-07T10:04:05;33.70;50.90
758;DHT22;363;48.764;9.172;2023-05-07T10:06:34;32.10;50.10
758;DHT22;363;48.764;9.172;2023-05-07T10:09:00;31.70;50.50
758;DHT22;363;48.764;9.172;2023-05-07T10:11:26;31.40;51.00
758;DHT22;363;48.764;9.172;2023-05-07T10:13:52;30.60;52.00
758;DHT22;363;48.764;9.172;2023-05-07T10:16:19;30.20;53.10
758;DHT22;363;48.764;9.172;2023-05-07T10:18:45;29.20;54.00
758;DHT22;363;48.764;9.172;2023-05-07T10:21:17;29.70;54.40
758;DHT22;363;48.764;9.172;2023-05-07T10:23:49;29.70;53.30
758;DHT22;363;48.764;9.172;2023-05-07T10:26:15;29.70;52.90
758;DHT22;363;48.764;9.172;2023-05-07T10:28:45;29.40;54.30
758;DHT22;363;48.764;9.172;2023-05-07T10:31:29;28.80;56.00
758;DHT22;363;48.764;9.172;2023-05-07T10:34:06;28.70;56.00
758;DHT22;363;48.764;9.172;2023-05-07T10:36:32;28.70;56.80
758;DHT22;363;48.764;9.172;2023-05-07T10:38:59;28.80;56.40
758;DHT22;363;48.764;9.172;2023-05-07T10:41:25;28.80;55.50
758;DHT22;363;48.764;9.172;2023-05-07T10:43:51;28.90;56.20
758;DHT22;363;48.764;9.172;2023-05-07T10:46:18;28.90;56.10
758;DHT22;363;48.764;9.172;2023-05-07T10:51:29;28.90;54.30
758;DHT22;363;48.764;9.172;2023-05-07T10:56:38;28.60;54.70
758;DHT22;363;48.764;9.172;2023-05-07T10:59:31;28.50;55.80
758;DHT22;363;48.764;9.172;2023-05-07T11:01:59;28.70;55.40
758;DHT22;363;48.764;9.172;2023-05-07T11:04:25;28.40;56.50
758;DHT22;363;48.764;9.172;2023-05-07T11:12:17;29.00;56.90
758;DHT22;363;48.764;9.172;2023-05-07T11:14:43;28.70;57.30
758;DHT22;363;48.764;9.172;2023-05-07T11:17:10;28.00;58.00
758;DHT22;363;48.764;9.172;2023-05-07T11:19:53;27.90;58.50
758;DHT22;363;48.764;9.172;2023-05-07T11:25:00;27.50;59.50
758;DHT22;363;48.764;9.172;2023-05-07T11:27:26;27.50;58.70
758;DHT22;363;48.764;9.172;2023-05-07T11:29:52;27.40;58.70
758;DHT22;363;48.764;9.172;2023-05-07T11:32:29;27.10;57.40
758;DHT22;363;48.764;9.172;2023-05-07T11:34:55;27.10;57.00
758;DHT22;363;48.764;9.172;2023-05-07T11:37:22;26.90;56.30
758;DHT22;363;48.764;9.172;2023-05-07T11:39:48;26.80;57.10
758;DHT22;363;48.764;9.172;2023-05-07T11:42:34;26.90;56.30
758;DHT22;363;48.764;9.172;2023-05-07T11:45:00;26.90;56.70
758;DHT22;363;48.764;9.172;2023-05-07T11:47:26;26.80;57.20
758;DHT22;363;48.764;9.172;2023-05-07T11:49:54;27.10;58.10
758;DHT22;363;48.764;9.172;2023-05-07T11:52:22;26.50;57.70
758;DHT22;363;48.764;9.172;2023-05-07T11:54:55;26.60;58.40
758;DHT22;363;48.764;9.172;2023-05-07T11:57:22;25.90;58.60
758;DHT22;363;48.764;9.172;2023-05-07T11:59:47;25.80;59.70
758;DHT22;363;48.764;9.172;2023-05-07T12:02:15;25.70;60.40
758;DHT22;363;48.764;9.172;2023-05-07T12:04:41;25.40;62.00
758;DHT22;363;48.764;9.172;2023-05-07T12:07:13;25.50;63.60
758;DHT22;363;48.764;9.172;2023-05-07T12:09:41;25.10;65.70
758;DHT22;363;48.764;9.172;2023-05-07T12:12:07;25.00;69.80
758;DHT22;363;48.764;9.172;2023-05-07T12:14:32;24.80;73.50
758;DHT22;363;48.764;9.172;2023-05-07T12:16:59;24.50;74.40
758;DHT22;363;48.764;9.172;2023-05-07T12:19:28;24.10;78.50
758;DHT22;363;48.764;9.172;2023-05-07T12:21:54;23.80;76.20
758;DHT22;363;48.764;9.172;2023-05-07T12:24:21;23.70;70.70
758;DHT22;363;48.764;9.172;2023-05-07T12:26:47;23.70;74.00
758;DHT22;363;48.764;9.172;2023-05-07T12:29:13;23.10;79.90
758;DHT22;363;48.764;9.172;2023-05-07T12:31:41;22.40;87.10
758;DHT22;363;48.764;9.172;2023-05-07T12:34:06;21.80;92.50
758;DHT22;363;48.764;9.172;2023-05-07T12:36:39;22.70;97.30
758;DHT22;363;48.764;9.172;2023-05-07T12:39:06;21.10;99.90
758;DHT22;363;48.764;9.172;2023-05-07T12:41:36;20.60;99.90
758;DHT22;363;48.764;9.172;2023-05-07T12:44:17;20.50;99.90
758;DHT22;363;48.764;9.172;2023-05-07T12:46:42;19.10;99.90
758;DHT22;363;48.764;9.172;2023-05-07T12:49:08;18.70;99.90
758;DHT22;363;48.764;9.172;2023-05-07T12:51:36;18.20;99.90
758;DHT22;363;48.764;9.172;2023-05-07T12:54:02;17.90;99.90
758;DHT22;363;48.764;9.172;2023-05-07T12:56:31;17.60;99.90
758;DHT22;363;48.764;9.172;2023-05-07T12:58:59;17.70;99.90
758;DHT22;363;48.764;9.172;2023-05-07T13:01:29;18.70;99.90
758;DHT22;363;48.764;9.172;2023-05-07T13:03:55;16.90;99.90
758;DHT22;363;48.764;9.172;2023-05-07T13:06:21;17.10;99.90
758;DHT22;363;48.764;9.172;2023-05-07T13:08:46;17.00;99.90
758;DHT22;363;48.764;9.172;2023-05-07T13:11:12;16.80;99.90
758;DHT22;363;48.764;9.172;2023-05-07T13:13:39;16.70;99.90
758;DHT22;363;48.764;9.172;2023-05-07T13:16:08;16.60;99.90
758;DHT22;363;48.764;9.172;2023-05-07T13:18:34;16.60;99.90
758;DHT22;363;48.764;9.172;2023-05-07T13:21:00;16.30;99.90
758;DHT22;363;48.764;9.172;2023-05-07T13:23:26;16.30;99.90
758;DHT22;363;48.764;9.172;2023-05-07T13:25:52;16.30;99.90
758;DHT22;363;48.764;9.172;2023-05-07T13:28:19;16.10;99.90
758;DHT22;363;48.764;9.172;2023-05-07T13:30:45;16.70;99.90
758;DHT22;363;48.764;9.172;2023-05-07T13:33:11;16.50;99.90
758;DHT22;363;48.764;9.172;2023-05-07T13:35:36;16.30;99.90
758;DHT22;363;48.764;9.172;2023-05-07T13:38:03;16.50;99.90
758;DHT22;363;48.764;9.172;2023-05-07T13:40:28;16.60;99.90
758;DHT22;363;48.764;9.172;2023-05-07T13:42:56;16.90;99.90
758;DHT22;363;48.764;9.172;2023-05-07T13:45:23;16.50;99.90
758;DHT22;363;48.764;9.172;2023-05-07T13:47:51;16.70;99.90
758;DHT22;363;48.764;9.172;2023-05-07T13:50:17;16.40;99.90
758;DHT22;363;48.764;9.172;2023-05-07T13:52:45;16.60;99.90
758;DHT22;363;48.764;9.172;2023-05-07T13:55:16;16.40;99.90
758;DHT22;363;48.764;9.172;2023-05-07T13:57:42;16.30;99.90
758;DHT22;363;48.764;9.172;2023-05-07T14:00:08;16.50;99.90
758;DHT22;363;48.764;9.172;2023-05-07T14:02:34;16.70;99.90
758;DHT22;363;48.764;9.172;2023-05-07T14:05:00;16.50;99.90
758;DHT22;363;48.764;9.172;2023-05-07T14:07:25;16.60;99.90
758;DHT22;363;48.764;9.172;2023-05-07T14:09:51;16.30;99.90
758;DHT22;363;48.764;9.172;2023-05-07T14:12:16;16.30;99.90
758;DHT22;363;48.764;9.172;2023-05-07T14:14:42;17.00;99.90
758;DHT22;363;48.764;9.172;2023-05-07T14:17:07;16.60;99.90
758;DHT22;363;48.764;9.172;2023-05-07T14:19:33;16.90;99.90
758;DHT22;363;48.764;9.172;2023-05-07T14:21:59;16.70;99.90
758;DHT22;363;48.764;9.172;2023-05-07T14:24:24;17.10;99.90
758;DHT22;363;48.764;9.172;2023-05-07T14:26:50;16.70;99.90
758;DHT22;363;48.764;9.172;2023-05-07T14:29:16;17.50;99.90
758;DHT22;363;48.764;9.172;2023-05-07T14:31:44;16.70;99.90
758;DHT22;363;48.764;9.172;2023-05-07T14:34:10;17.00;99.90
758;DHT22;363;48.764;9.172;2023-05-07T14:36:35;16.70;99.90
758;DHT22;363;48.764;9.172;2023-05-07T14:39:01;16.70;99.90
758;DHT22;363;48.764;9.172;2023-05-07T14:41:27;17.10;99.90
758;DHT22;363;48.764;9.172;2023-05-07T14:43:53;16.90;99.90
758;DHT22;363;48.764;9.172;2023-05-07T14:46:20;17.00;99.90
758;DHT22;363;48.764;9.172;2023-05-07T14:48:45;17.00;99.90
758;DHT22;363;48.764;9.172;2023-05-07T14:51:11;16.50;99.90
758;DHT22;363;48.764;9.172;2023-05-07T14:53:37;16.80;99.90
758;DHT22;363;48.764;9.172;2023-05-07T14:56:04;16.80;99.90
758;DHT22;363;48.764;9.172;2023-05-07T14:58:30;17.00;99.90
758;DHT22;363;48.764;9.172;2023-05-07T15:00:58;17.00;99.90
758;DHT22;363;48.764;9.172;2023-05-07T15:03:24;16.80;99.90
758;DHT22;363;48.764;9.172;2023-05-07T15:05:50;16.80;99.90
758;DHT22;363;48.764;9.172;2023-05-07T15:08:17;17.30;99.90
758;DHT22;363;48.764;9.172;2023-05-07T15:10:42;16.80;99.90
758;DHT22;363;48.764;9.172;2023-05-07T15:13:09;16.90;99.90
758;DHT22;363;48.764;9.172;2023-05-07T15:15:35;17.60;99.90
758;DHT22;363;48.764;9.172;2023-05-07T15:18:00;17.30;99.90
758;DHT22;363;48.764;9.172;2023-05-07T15:20:26;17.30;99.90
758;DHT22;363;48.764;9.172;2023-05-07T15:22:52;17.50;99.90
758;DHT22;363;48.764;9.172;2023-05-07T15:25:17;17.10;99.90
758;DHT22;363;48.764;9.172;2023-05-07T15:27:43;17.80;99.90
758;DHT22;363;48.764;9.172;2023-05-07T15:30:09;17.80;99.90
758;DHT22;363;48.764;9.172;2023-05-07T15:32:36;17.70;99.90
758;DHT22;363;48.764;9.172;2023-05-07T15:35:02;17.50;99.90
758;DHT22;363;48.764;9.172;2023-05-07T15:37:30;17.60;99.90
758;DHT22;363;48.764;9.172;2023-05-07T15:39:56;17.50;99.90
758;DHT22;363;48.764;9.172;2023-05-07T15:42:22;18.10;99.90
758;DHT22;363;48.764;9.172;2023-05-07T15:44:47;17.40;99.90
758;DHT22;363;48.764;9.172;2023-05-07T15:47:13;18.00;99.90
758;DHT22;363;48.764;9.172;2023-05-07T15:49:40;18.20;99.90
758;DHT22;363;48.764;9.172;2023-05-07T15:52:05;18.30;99.90
758;DHT22;363;48.764;9.172;2023-05-07T15:54:31;18.40;99.90
758;DHT22;363;48.764;9.172;2023-05-07T15:56:56;18.40;99.90
758;DHT22;363;48.764;9.172;2023-05-07T15:59:22;18.20;99.90
758;DHT22;363;48.764;9.172;2023-05-07T16:01:48;18.30;99.90
758;DHT22;363;48.764;9.172;2023-05-07T16:04:14;18.20;99.90
758;DHT22;363;48.764;9.172;2023-05-07T16:06:39;18.30;99.90
758;DHT22;363;48.764;9.172;2023-05-07T16:09:05;18.40;99.90
758;DHT22;363;48.764;9.172;2023-05-07T16:11:31;18.40;99.90
758;DHT22;363;48.764;9.172;2023-05-07T16:13:58;18.30;99.90
758;DHT22;363;48.764;9.172;2023-05-07T16:16:25;18.30;99.90
758;DHT22;363;48.764;9.172;2023-05-07T16:18:54;18.60;99.90
758;DHT22;363;48.764;9.172;2023-05-07T16:21:20;18.30;99.90
758;DHT22;363;48.764;9.172;2023-05-07T16:23:46;18.40;99.90
758;DHT22;363;48.764;9.172;2023-05-07T16:26:12;18.30;99.90
758;DHT22;363;48.764;9.172;2023-05-07T16:28:39;18.50;99.90
758;DHT22;363;48.764;9.172;2023-05-07T16:31:07;18.10;99.90
758;DHT22;363;48.764;9.172;2023-05-07T16:33:33;18.10;99.90
758;DHT22;363;48.764;9.172;2023-05-07T16:35:58;17.70;99.90
758;DHT22;363;48.764;9.172;2023-05-07T16:38:24;18.10;99.90
758;DHT22;363;48.764;9.172;2023-05-07T16:40:51;18.20;99.90
758;DHT22;363;48.764;9.172;2023-05-07T16:43:17;18.40;99.90